Terminal Aerodrome Forecast
Issued by NWS

Home | Current Version | Previous Version | Graphics & Text | Print | Product List | Glossary On
Versions: 1 2 3 4 5 6 7 8 9 10 11 12 13 14 15 16 17 18 19 20 21 22 23 24 25 26 27 28 29 30 31 32 33 34
000
FTUS43 KLOT 200500
TAFMDW
TAF
KMDW 200524Z 2006/2106 27004KT P6SM SKC
     FM200800 29004KT 6SM BR FEW050 FEW250
     FM201400 29010KT P6SM SCT040
     FM210100 12004KT P6SM FEW040 BKN150=

USA.gov is the U.S. government's official web portal to all federal, state and local government web resources and services.